Time;durP1;ratioP1;P1;durP2;ratioP2;P2;SDS_P1;SDS_P2;PMS_P1;PMS_P2;Temp;Humidity;BMP_temperature;BMP_pressure;BME280_temperature;BME280_humidity;BME280_pressure;Samples;Min_cycle;Max_cycle;Signal;HPM_P1;HPM_P2
2022/05/18 00:08:38;;;;;;;;;;;;;;;;;;;;;
2022/05/18 00:24:06;;;;;;;;;;;;;;;;;;;;;
2022/05/18 00:45:15;;;;;;;;;;;;;;;;;;;;;
2022/05/18 00:55:32;;;;;;;1.87;1.42;;;;;;;8.62;65.86;97189.09;1320378;107;22062;-84
2022/05/18 00:59:15;;;;;;;;;;;;;;;;;;;;;
2022/05/18 01:13:04;;;;;;;4.62;1.80;;;;;;;8.45;65.48;97195.92;1296297;110;21174;-84
2022/05/18 13:25:42;;;;;;;2.50;0.98;;;;;;;18.44;30.40;97618.44;1758523;80;21599;-86
2022/05/18 13:28:09;;;;;;;1.52;0.80;;;;;;;18.47;30.90;97610.13;1758961;80;21099;-87
2022/05/18 13:30:52;;;;;;;2.92;1.17;;;;;;;18.48;29.75;97603.86;1754534;79;21070;-86
2022/05/18 13:33:18;;;;;;;2.27;0.90;;;;;;;18.38;29.52;97607.37;1688973;83;21110;-87
2022/05/18 13:35:48;;;;;;;3.25;0.88;;;;;;;18.38;30.35;97602.63;1787706;78;21126;-87
2022/05/18 13:38:17;;;;;;;1.50;0.80;;;;;;;18.39;28.58;97611.66;1748746;80;21063;-86
2022/05/18 13:40:53;;;;;;;2.30;0.93;;;;;;;18.38;30.59;97600.80;1766654;80;21023;-87
2022/05/18 13:43:20;;;;;;;2.27;1.12;;;;;;;18.57;32.10;97603.16;1715199;82;21067;-87
2022/05/18 13:45:57;;;;;;;3.00;0.90;;;;;;;18.82;31.85;97597.59;1732952;80;21088;-87
2022/05/18 13:48:24;;;;;;;1.45;0.80;;;;;;;18.99;31.57;97599.30;1734804;80;21343;-87
2022/05/18 13:51:00;;;;;;;2.22;0.78;;;;;;;19.05;32.34;97601.13;1734928;80;21004;-87
2022/05/18 13:53:32;;;;;;;2.50;1.00;;;;;;;19.11;30.86;97603.44;1753296;81;21037;-86
2022/05/18 13:56:13;;;;;;;1.62;0.80;;;;;;;19.22;31.45;97602.81;1764932;78;21007;-87
2022/05/18 13:58:42;;;;;;;1.05;0.82;;;;;;;19.24;29.58;97592.87;1773448;80;21007;-87
2022/05/18 14:01:20;;;;;;;1.27;0.85;;;;;;;19.28;30.25;97590.63;1684727;82;20977;-86
2022/05/18 14:03:46;;;;;;;1.80;0.90;;;;;;;19.27;31.82;97594.28;1738397;81;21080;-92
2022/05/18 14:06:17;;;;;;;2.80;1.00;;;;;;;19.40;31.35;97595.06;1693304;83;21067;-88
2022/05/18 14:08:45;;;;;;;3.83;1.02;;;;;;;19.47;30.30;97593.70;1693385;82;21058;-87
2022/05/18 14:11:13;;;;;;;2.47;0.88;;;;;;;19.52;30.25;97597.83;1739152;79;21387;-88
2022/05/18 14:13:39;;;;;;;1.80;0.88;;;;;;;19.51;30.41;97594.90;1753215;80;21018;-86
2022/05/18 14:16:06;;;;;;;2.70;0.90;;;;;;;19.52;29.85;97585.97;1716115;82;21828;-86
2022/05/18 14:18:46;;;;;;;2.35;0.90;;;;;;;19.49;29.96;97592.47;1725411;80;21163;-87
2022/05/18 14:21:12;;;;;;;2.67;0.98;;;;;;;19.55;29.45;97593.52;1760918;79;21001;-86
2022/05/18 14:24:05;;;;;;;1.65;0.70;;;;;;;19.42;27.99;97586.43;1741872;78;21469;-86
2022/05/18 14:26:44;;;;;;;3.85;1.02;;;;;;;19.37;28.48;97584.13;1756556;80;21444;-86
2022/05/18 14:29:16;;;;;;;3.92;1.02;;;;;;;19.39;29.47;97588.17;1758065;79;21371;-86
2022/05/18 14:31:47;;;;;;;1.20;0.80;;;;;;;19.44;30.32;97587.03;1713477;81;21057;-86
2022/05/18 14:34:13;;;;;;;3.02;1.12;;;;;;;19.44;28.74;97581.75;1730454;81;21145;-86
2022/05/18 14:36:43;;;;;;;1.62;0.85;;;;;;;19.48;28.68;97580.83;1771395;78;21036;-86
2022/05/18 14:39:29;;;;;;;1.55;0.50;;;;;;;19.48;29.10;97583.46;1762113;79;21481;-86
2022/05/18 14:41:56;;;;;;;1.72;0.70;;;;;;;19.44;27.11;97584.39;1707532;82;21056;-87
2022/05/18 14:44:29;;;;;;;1.65;1.02;;;;;;;19.42;29.15;97575.08;1740902;80;21015;-87
2022/05/18 14:46:55;;;;;;;1.60;0.80;;;;;;;19.50;28.91;97573.52;1757984;80;20985;-87
2022/05/18 14:49:25;;;;;;;3.15;0.82;;;;;;;19.54;29.92;97581.36;1761581;78;21106;-86
2022/05/18 14:51:58;;;;;;;2.67;0.82;;;;;;;19.57;29.19;97582.25;1741863;81;21099;-87
2022/05/18 14:54:48;;;;;;;1.65;0.62;;;;;;;19.69;30.07;97578.45;1777328;79;21085;-86
2022/05/18 14:57:29;;;;;;;2.12;0.70;;;;;;;19.69;26.90;97577.14;1763816;80;21414;-86
2022/05/18 14:59:59;;;;;;;1.87;0.93;;;;;;;19.59;27.81;97581.53;1749080;80;21429;-86
2022/05/18 15:02:25;;;;;;;1.50;0.75;;;;;;;19.68;28.97;97584.20;1755639;79;22057;-86
2022/05/18 15:05:05;;;;;;;2.08;0.80;;;;;;;19.68;28.38;97579.45;1739441;80;20988;-86
2022/05/18 15:07:46;;;;;;;1.30;1.00;;;;;;;19.84;30.51;97586.88;1770269;78;21153;-86
2022/05/18 15:10:35;;;;;;;2.08;0.93;;;;;;;19.92;29.75;97580.05;1754338;80;21036;-86
2022/05/18 15:13:18;;;;;;;2.12;0.75;;;;;;;19.94;29.01;97579.32;1778941;79;21027;-86
2022/05/18 15:16:07;;;;;;;1.12;0.82;;;;;;;19.98;29.99;97581.83;1762957;79;21052;-86
2022/05/18 15:18:55;;;;;;;2.62;1.00;;;;;;;19.97;28.07;97575.45;1785099;79;21030;-85
2022/05/18 15:21:34;;;;;;;3.17;0.80;;;;;;;20.01;28.47;97585.86;1764407;80;21099;-85
2022/05/18 15:24:10;;;;;;;1.85;0.82;;;;;;;20.00;27.97;97582.93;1779519;80;21095;-89
2022/05/18 15:26:46;;;;;;;2.92;0.88;;;;;;;19.86;27.36;97578.77;1740115;79;21103;-85
2022/05/18 15:29:35;;;;;;;2.80;1.00;;;;;;;19.76;27.66;97585.30;1753645;79;20993;-87
2022/05/18 15:32:16;;;;;;;3.27;0.95;;;;;;;19.66;26.02;97577.02;1740070;80;21083;-86
2022/05/18 15:34:49;;;;;;;2.13;1.00;;;;;;;19.56;28.59;97580.63;1744265;80;21111;-86
2022/05/18 15:37:18;;;;;;;1.90;0.72;;;;;;;19.64;28.02;97576.42;1770286;80;21062;-85
2022/05/18 15:39:43;;;;;;;1.52;1.00;;;;;;;19.67;27.02;97574.69;1776198;80;20992;-85
2022/05/18 15:42:12;;;;;;;1.92;0.82;;;;;;;19.69;29.06;97578.45;1781893;79;20988;-85
2022/05/18 15:44:37;;;;;;;2.77;0.80;;;;;;;19.79;28.01;97577.47;1769605;79;21180;-85
2022/05/18 15:47:10;;;;;;;3.47;0.80;;;;;;;19.78;26.76;97571.39;1780904;78;21153;-85
2022/05/18 15:49:41;;;;;;;3.60;0.88;;;;;;;19.78;28.57;97573.22;1760152;80;21986;-86
2022/05/18 15:52:13;;;;;;;2.02;0.70;;;;;;;19.87;28.50;97572.48;1785833;78;20995;-85
2022/05/18 15:54:51;;;;;;;1.55;0.88;;;;;;;19.87;27.83;97568.52;1787257;78;21051;-86
2022/05/18 15:57:17;;;;;;;1.62;0.82;;;;;;;19.81;28.60;97575.43;1786866;78;20960;-86
2022/05/18 15:59:42;;;;;;;2.85;1.20;;;;;;;19.84;28.14;97572.36;1761545;79;21488;-85
2022/05/18 16:02:09;;;;;;;1.70;0.95;;;;;;;19.87;28.14;97568.52;1780142;78;21401;-86
2022/05/18 16:04:34;;;;;;;2.60;0.78;;;;;;;19.85;28.36;97574.02;1790263;79;21445;-85
2022/05/18 16:07:00;;;;;;;2.02;0.90;;;;;;;19.81;29.16;97577.26;1786661;79;21030;-85
2022/05/18 16:09:26;;;;;;;1.98;1.05;;;;;;;19.71;28.53;97575.09;1746255;79;21036;-86
2022/05/18 16:11:52;;;;;;;1.30;0.82;;;;;;;19.62;29.23;97573.20;1755556;79;21326;-85
2022/05/18 16:14:18;;;;;;;2.08;0.80;;;;;;;19.58;28.91;97573.83;1751070;80;21007;-86
2022/05/18 16:16:44;;;;;;;2.27;0.88;;;;;;;19.61;30.29;97578.67;1776429;80;21075;-86
2022/05/18 16:19:09;;;;;;;1.52;0.90;;;;;;;19.60;29.42;97577.87;1785884;78;21065;-86
2022/05/18 16:21:36;;;;;;;5.33;1.07;;;;;;;19.57;28.51;97574.34;1787678;79;21079;-86
2022/05/18 16:24:15;;;;;;;1.57;0.85;;;;;;;19.43;28.75;97576.19;1791243;79;21082;-86
2022/05/18 16:26:41;;;;;;;1.67;0.90;;;;;;;19.43;28.59;97574.87;1785259;79;21055;-86
2022/05/18 16:29:07;;;;;;;2.37;0.75;;;;;;;19.38;27.33;97568.10;1775586;79;21068;-87
2022/05/18 16:31:33;;;;;;;4.50;1.05;;;;;;;19.37;27.78;97576.22;1729636;80;21087;-85
2022/05/18 16:33:58;;;;;;;2.02;0.80;;;;;;;19.43;27.55;97571.42;1758595;80;21466;-85
2022/05/18 16:36:25;;;;;;;3.15;0.88;;;;;;;19.50;30.09;97573.52;1751988;80;21413;-86
2022/05/18 16:38:51;;;;;;;1.95;1.00;;;;;;;19.63;29.24;97573.49;1774265;80;21005;-86
2022/05/18 16:41:28;;;;;;;2.40;1.62;;;;;;;19.67;28.81;97558.86;1748083;80;21459;-85
2022/05/18 16:44:06;;;;;;;2.60;0.80;;;;;;;19.69;29.59;97574.50;1754359;79;21337;-85
2022/05/18 16:46:32;;;;;;;2.40;0.90;;;;;;;19.54;29.07;97580.03;1748101;80;21009;-86
2022/05/18 16:48:57;;;;;;;2.55;1.00;;;;;;;19.35;28.98;97576.91;1745216;80;21374;-85
2022/05/18 16:51:23;;;;;;;2.40;1.00;;;;;;;19.20;28.54;97579.83;1758074;79;21055;-85
2022/05/18 16:53:49;;;;;;;5.60;1.07;;;;;;;19.08;28.73;97578.33;1760367;79;21003;-85
2022/05/18 16:56:15;;;;;;;2.35;1.00;;;;;;;18.95;27.61;97581.48;1792968;79;20972;-86
2022/05/18 16:58:41;;;;;;;1.67;0.70;;;;;;;18.77;27.90;97576.85;1784255;80;20992;-85
2022/05/18 17:01:06;;;;;;;1.40;0.70;;;;;;;18.65;28.57;97574.52;1778235;80;21068;-86
2022/05/18 17:03:33;;;;;;;2.27;0.90;;;;;;;18.57;29.74;97574.21;1791306;78;21037;-85
2022/05/18 17:06:00;;;;;;;2.33;0.98;;;;;;;18.49;30.10;97577.84;1789312;80;20976;-85
2022/05/18 17:08:43;;;;;;;2.12;0.90;;;;;;;18.45;30.79;97577.95;1777507;79;21121;-85
2022/05/18 17:11:32;;;;;;;1.60;0.78;;;;;;;18.41;30.15;97583.83;1795584;78;20995;-85
2022/05/18 17:14:15;;;;;;;1.40;0.95;;;;;;;18.33;30.22;97579.55;1790440;80;20992;-87
2022/05/18 17:16:49;;;;;;;1.90;0.65;;;;;;;18.22;30.45;97583.61;1787474;80;21066;-85
2022/05/18 17:19:17;;;;;;;1.95;1.00;;;;;;;18.17;30.82;97573.36;1750979;80;20988;-85
2022/05/18 17:21:43;;;;;;;1.82;0.82;;;;;;;18.17;31.43;97579.44;1788683;79;20913;-85
2022/05/18 17:24:08;;;;;;;3.35;1.00;;;;;;;18.33;31.54;97582.19;1790591;80;20968;-86
2022/05/18 17:26:44;;;;;;;1.32;0.80;;;;;;;18.59;31.94;97576.13;1790868;80;21003;-86
2022/05/18 17:29:29;;;;;;;2.10;1.00;;;;;;;18.82;32.02;97579.67;1789260;80;21030;-85
2022/05/18 17:31:55;;;;;;;2.37;0.80;;;;;;;19.03;31.86;97582.06;1775939;79;21114;-85
2022/05/18 17:34:21;;;;;;;2.90;1.00;;;;;;;19.12;31.79;97587.94;1732629;80;21035;-85
2022/05/18 17:36:47;;;;;;;2.65;1.20;;;;;;;19.14;31.92;97588.02;1747986;79;21407;-85
2022/05/18 17:39:13;;;;;;;2.05;0.95;;;;;;;19.09;32.36;97589.16;1749797;80;21028;-86
2022/05/18 17:41:39;;;;;;;1.62;0.80;;;;;;;19.01;33.21;97588.55;1761822;80;21336;-86
2022/05/18 17:44:06;;;;;;;3.27;0.85;;;;;;;18.91;33.60;97588.19;1751626;80;21015;-85
2022/05/18 17:46:34;;;;;;;2.40;0.90;;;;;;;18.74;34.04;97588.61;1760366;79;20972;-86
2022/05/18 17:49:00;;;;;;;2.12;0.90;;;;;;;18.59;34.16;97591.41;1765856;78;21121;-85
2022/05/18 17:51:26;;;;;;;2.02;1.05;;;;;;;18.39;34.39;97595.87;1758734;80;21161;-85
2022/05/18 17:53:51;;;;;;;1.35;0.80;;;;;;;18.15;34.81;97588.03;1759985;79;21481;-85
2022/05/18 17:56:18;;;;;;;1.50;0.80;;;;;;;17.93;35.13;97590.02;1723726;80;21066;-86
2022/05/18 17:58:46;;;;;;;2.37;1.00;;;;;;;17.65;35.62;97595.36;1742663;80;21096;-86
2022/05/18 18:01:12;;;;;;;2.62;0.98;;;;;;;17.28;35.84;97590.55;1751464;80;21236;-85
2022/05/18 18:03:38;;;;;;;1.22;0.72;;;;;;;16.87;36.48;97589.19;1749265;80;21108;-85
2022/05/18 18:06:04;;;;;;;1.90;0.88;;;;;;;16.48;37.09;97586.05;1732384;79;21099;-86
2022/05/18 18:08:30;;;;;;;3.08;1.37;;;;;;;16.17;37.41;97599.99;1765638;79;21517;-85
2022/05/18 18:10:59;;;;;;;2.42;1.05;;;;;;;15.85;37.11;97598.66;1748915;81;21123;-85
2022/05/18 18:13:23;;;;;;;1.77;0.88;;;;;;;15.51;37.60;97596.12;1745417;80;21015;-85
2022/05/18 18:15:49;;;;;;;3.27;0.95;;;;;;;15.21;37.40;97597.95;1753990;80;21412;-85
2022/05/18 18:18:15;;;;;;;1.90;1.02;;;;;;;14.93;37.65;97595.62;1724370;80;21363;-85
2022/05/18 18:20:42;;;;;;;3.33;1.25;;;;;;;14.68;37.72;97593.77;1772624;80;21076;-85
2022/05/18 18:23:14;;;;;;;2.25;0.70;;;;;;;14.42;38.13;97601.45;1761621;78;21434;-85
2022/05/18 18:25:39;;;;;;;2.60;1.25;;;;;;;14.19;38.30;97601.98;1728749;81;21491;-85
2022/05/18 18:28:05;;;;;;;3.08;1.10;;;;;;;13.97;38.61;97605.38;1747164;80;21115;-85
2022/05/18 18:30:31;;;;;;;3.25;0.80;;;;;;;13.76;39.23;97606.00;1750409;80;21429;-85
2022/05/18 18:32:57;;;;;;;3.80;1.12;;;;;;;13.58;39.50;97608.86;1738274;80;20977;-85
2022/05/18 18:35:23;;;;;;;1.32;0.88;;;;;;;13.41;39.68;97614.65;1745746;80;21030;-85
2022/05/18 18:37:49;;;;;;;4.40;1.37;;;;;;;13.25;40.03;97613.89;1761025;80;21415;-84
2022/05/18 18:40:20;;;;;;;2.50;1.15;;;;;;;13.06;40.21;97606.74;1750491;79;21040;-85
2022/05/18 18:42:45;;;;;;;2.47;0.85;;;;;;;12.90;40.27;97619.82;1748475;80;21073;-84
2022/05/18 18:45:11;;;;;;;1.67;0.88;;;;;;;12.74;40.51;97626.37;1741206;80;21064;-85
2022/05/18 18:47:37;;;;;;;1.17;0.90;;;;;;;12.60;40.90;97629.95;1748028;80;21044;-85
2022/05/18 18:50:04;;;;;;;2.37;0.95;;;;;;;12.47;41.49;97632.23;1763691;79;20973;-84
2022/05/18 18:55:19;;;;;;;2.20;0.68;;;;;;;12.21;41.80;97633.70;1761608;79;21054;-84
2022/05/18 18:57:50;;;;;;;1.80;0.85;;;;;;;12.08;41.43;97637.75;1768510;79;20960;-84
2022/05/18 19:00:23;;;;;;;2.35;1.10;;;;;;;11.94;41.39;97639.18;1755071;80;20984;-84
2022/05/18 19:02:50;;;;;;;1.25;0.70;;;;;;;11.83;41.09;97640.77;1753239;81;20977;-85
2022/05/18 19:05:20;;;;;;;2.27;1.02;;;;;;;11.71;41.07;97642.35;1778204;79;20985;-84
2022/05/18 19:07:50;;;;;;;2.42;1.85;;;;;;;11.59;41.31;97637.58;1773010;79;20972;-84
2022/05/18 19:10:18;;;;;;;1.05;0.70;;;;;;;11.49;41.46;97639.00;1768472;80;21025;-85
2022/05/18 19:12:51;;;;;;;1.17;0.70;;;;;;;11.41;41.31;97640.28;1766507;80;21043;-84
2022/05/18 19:15:20;;;;;;;2.80;0.88;;;;;;;11.30;40.86;97639.24;1775975;80;21077;-85
2022/05/18 19:17:47;;;;;;;3.33;0.70;;;;;;;11.21;40.88;97644.06;1748708;80;20973;-85
2022/05/18 19:20:17;;;;;;;2.40;0.93;;;;;;;11.15;41.16;97644.69;1768259;78;21061;-84
2022/05/18 19:22:46;;;;;;;1.40;0.70;;;;;;;11.08;41.36;97642.72;1765191;80;20940;-84
2022/05/18 19:25:23;;;;;;;1.00;0.65;;;;;;;11.00;41.00;97641.35;1749855;80;21068;-84
2022/05/18 19:27:49;;;;;;;0.98;0.60;;;;;;;10.94;40.47;97641.16;1756936;80;21012;-84
2022/05/18 19:30:15;;;;;;;1.92;0.80;;;;;;;10.86;39.81;97638.49;1757522;79;20968;-84
2022/05/18 19:32:42;;;;;;;1.30;0.50;;;;;;;10.78;39.97;97637.48;1747309;80;21458;-84
2022/05/18 19:35:09;;;;;;;1.35;0.60;;;;;;;10.71;39.75;97636.44;1750392;80;21055;-84
2022/05/18 19:37:34;;;;;;;2.10;0.60;;;;;;;10.61;39.84;97629.23;1757744;80;21012;-84
2022/05/18 19:40:02;;;;;;;2.12;0.70;;;;;;;10.53;40.13;97626.08;1755228;80;21399;-85
2022/05/18 19:42:31;;;;;;;2.05;0.70;;;;;;;10.46;40.07;97628.14;1758693;80;20976;-85
2022/05/18 19:44:57;;;;;;;1.27;0.72;;;;;;;10.38;40.73;97628.06;1730732;80;21005;-84
2022/05/18 19:47:25;;;;;;;1.62;0.55;;;;;;;10.30;40.92;97630.13;1759600;80;21278;-84
2022/05/18 19:49:51;;;;;;;1.25;0.60;;;;;;;10.23;41.20;97629.89;1766287;80;21438;-85
2022/05/18 19:52:16;;;;;;;1.77;0.80;;;;;;;10.17;41.45;97624.45;1776180;80;20988;-84
2022/05/18 19:54:42;;;;;;;1.65;0.70;;;;;;;10.12;42.18;97621.49;1758226;79;20977;-84
2022/05/18 19:57:10;;;;;;;1.22;0.70;;;;;;;10.09;42.51;97621.31;1764782;80;20968;-84
2022/05/18 19:59:36;;;;;;;2.77;1.00;;;;;;;10.04;42.03;97624.81;1770160;79;21833;-84
2022/05/18 20:02:04;;;;;;;2.65;0.70;;;;;;;10.01;41.85;97630.30;1762525;80;21165;-84
2022/05/18 20:04:31;;;;;;;1.95;1.00;;;;;;;9.97;41.59;97629.46;1766509;80;21371;-84
2022/05/18 20:06:57;;;;;;;1.15;0.70;;;;;;;9.94;41.50;97627.98;1735096;81;20996;-84
2022/05/18 20:09:23;;;;;;;1.45;0.60;;;;;;;9.92;41.10;97631.17;1766599;79;20992;-84
2022/05/18 20:11:48;;;;;;;1.40;0.50;;;;;;;9.88;40.44;97625.95;1785487;79;21015;-84
2022/05/18 20:14:14;;;;;;;1.87;0.50;;;;;;;9.85;40.87;97635.34;1774131;80;21016;-84
2022/05/18 20:16:41;;;;;;;2.60;0.80;;;;;;;9.82;40.29;97633.03;1771299;80;21072;-84
2022/05/18 20:19:07;;;;;;;2.22;1.10;;;;;;;9.78;39.99;97633.81;1767804;80;21047;-84
2022/05/18 20:21:34;;;;;;;2.05;0.70;;;;;;;9.75;39.99;97631.97;1779251;79;21067;-85
2022/05/18 20:24:01;;;;;;;2.10;0.88;;;;;;;9.72;40.28;97629.67;1773980;79;21011;-84
2022/05/18 20:26:37;;;;;;;1.20;0.90;;;;;;;9.70;40.66;97634.19;1786566;79;21418;-85
2022/05/18 20:29:04;;;;;;;1.47;0.70;;;;;;;9.68;41.09;97633.05;1774280;80;20957;-85
2022/05/18 20:31:30;;;;;;;1.92;0.68;;;;;;;9.67;41.21;97634.01;1765319;79;20987;-85
2022/05/18 20:33:56;;;;;;;1.22;0.82;;;;;;;9.67;40.92;97637.09;1777951;79;21345;-84
2022/05/18 20:36:22;;;;;;;3.30;1.05;;;;;;;9.64;40.55;97631.71;1774733;80;20997;-84
2022/05/18 20:38:48;;;;;;;1.00;0.60;;;;;;;9.63;40.55;97633.97;1762496;80;20965;-85
2022/05/18 20:41:13;;;;;;;2.35;0.70;;;;;;;9.61;40.74;97638.02;1774844;80;20996;-85
2022/05/18 20:43:41;;;;;;;1.27;0.60;;;;;;;9.58;40.72;97640.88;1777603;80;21110;-84
2022/05/18 20:46:07;;;;;;;1.10;0.70;;;;;;;9.57;40.50;97642.31;1779969;80;20968;-84
2022/05/18 20:48:35;;;;;;;2.20;0.70;;;;;;;9.55;40.29;97635.98;1776535;80;20984;-84
2022/05/18 20:51:01;;;;;;;1.87;0.80;;;;;;;9.54;40.19;97633.53;1769532;80;21036;-84
2022/05/18 20:53:27;;;;;;;2.27;0.80;;;;;;;9.53;40.17;97638.38;1785246;79;21091;-85
2022/05/18 20:55:54;;;;;;;1.30;0.80;;;;;;;9.52;40.19;97640.64;1763606;80;21068;-84
2022/05/18 20:58:21;;;;;;;1.12;0.68;;;;;;;9.51;40.45;97632.05;1764101;79;21019;-84
2022/05/18 21:00:48;;;;;;;1.75;0.53;;;;;;;9.50;40.45;97633.00;1767562;80;21078;-84
2022/05/18 21:03:13;;;;;;;1.27;0.60;;;;;;;9.49;40.31;97631.37;1780385;80;21063;-84
2022/05/18 21:05:39;;;;;;;0.68;0.60;;;;;;;9.47;40.65;97628.11;1786530;80;21608;-84
2022/05/18 21:08:05;;;;;;;0.47;0.47;;;;;;;9.46;40.75;97632.97;1784654;78;21123;-84
2022/05/18 21:10:38;;;;;;;0.95;0.50;;;;;;;9.46;40.75;97632.97;1777780;80;21395;-84
2022/05/18 21:13:04;;;;;;;0.93;0.60;;;;;;;9.45;41.58;97631.34;1769640;80;21005;-84
2022/05/18 21:15:32;;;;;;;1.37;0.80;;;;;;;9.44;41.58;97637.97;1751721;80;20979;-84
2022/05/18 21:17:59;;;;;;;2.33;0.80;;;;;;;9.43;41.35;97632.41;1772144;80;20996;-84
2022/05/18 21:20:26;;;;;;;1.60;0.60;;;;;;;9.42;41.54;97631.59;1792037;79;21090;-84
2022/05/18 21:22:51;;;;;;;1.17;0.70;;;;;;;9.42;41.97;97636.78;1791132;80;21602;-84
2022/05/18 21:25:18;;;;;;;2.50;0.90;;;;;;;9.41;42.25;97644.23;1788650;79;20988;-84
2022/05/18 21:27:43;;;;;;;0.85;0.60;;;;;;;9.39;42.03;97639.67;1793071;79;21004;-85
2022/05/18 21:30:11;;;;;;;1.15;0.70;;;;;;;9.38;41.97;97635.92;1791718;79;20983;-84
2022/05/18 21:32:41;;;;;;;1.57;0.78;;;;;;;9.36;42.33;97641.27;1782691;80;21068;-84
2022/05/18 21:35:08;;;;;;;1.12;0.70;;;;;;;9.35;42.47;97638.33;1790366;80;20996;-84
2022/05/18 21:37:35;;;;;;;1.70;0.75;;;;;;;9.34;42.83;97634.11;1775180;80;21148;-84
2022/05/18 21:40:01;;;;;;;3.25;0.80;;;;;;;9.32;42.70;97634.25;1772854;80;21083;-85
2022/05/18 21:42:29;;;;;;;1.40;0.60;;;;;;;9.31;42.53;97636.99;1784456;79;21031;-84
2022/05/18 21:44:55;;;;;;;2.15;0.75;;;;;;;9.30;43.08;97631.47;1795753;78;21035;-84
2022/05/18 21:47:21;;;;;;;3.77;0.75;;;;;;;9.28;42.95;97626.43;1791108;79;21039;-85
2022/05/18 21:49:47;;;;;;;1.37;0.60;;;;;;;9.28;42.88;97628.20;1781413;80;21205;-84
2022/05/18 21:52:13;;;;;;;1.07;0.75;;;;;;;9.26;43.22;97628.32;1780525;80;21351;-85
2022/05/18 21:54:39;;;;;;;1.15;0.60;;;;;;;9.27;43.09;97631.73;1784164;78;21000;-85
2022/05/18 21:57:06;;;;;;;1.47;0.60;;;;;;;9.26;43.68;97628.80;1792232;79;21023;-84
2022/05/18 21:59:34;;;;;;;2.35;0.82;;;;;;;9.27;44.23;97631.73;1795925;78;21401;-84
2022/05/18 22:02:05;;;;;;;1.55;1.02;;;;;;;9.26;44.66;97621.84;1791560;78;21413;-84
2022/05/18 22:04:31;;;;;;;3.25;0.93;;;;;;;9.27;44.67;97626.09;1789007;79;21039;-84
2022/05/18 22:06:59;;;;;;;1.10;0.80;;;;;;;9.28;44.31;97619.12;1778290;80;21407;-85
2022/05/18 22:09:26;;;;;;;1.00;0.70;;;;;;;9.26;43.89;97622.31;1773026;79;20996;-84
2022/05/18 22:11:54;;;;;;;1.65;1.00;;;;;;;9.25;44.28;97625.88;1784609;79;21405;-84
2022/05/18 22:14:26;;;;;;;1.55;0.65;;;;;;;9.25;44.76;97628.47;1777551;80;21031;-85
2022/05/18 22:16:53;;;;;;;2.20;0.70;;;;;;;9.24;45.45;97630.24;1764954;80;21095;-84
2022/05/18 22:19:20;;;;;;;1.27;0.88;;;;;;;9.23;45.62;97623.91;1764720;79;21104;-84
2022/05/18 22:21:49;;;;;;;3.80;1.10;;;;;;;9.20;46.27;97616.41;1788346;80;21087;-84
2022/05/18 22:24:15;;;;;;;1.60;0.88;;;;;;;9.15;45.67;97613.44;1790178;78;21083;-84
2022/05/18 22:26:41;;;;;;;1.15;0.80;;;;;;;9.12;45.58;97618.44;1787636;79;21338;-84
2022/05/18 22:29:06;;;;;;;1.10;0.78;;;;;;;9.11;45.59;97619.41;1793556;79;21145;-84
2022/05/18 22:31:32;;;;;;;1.22;0.80;;;;;;;9.10;46.11;97616.44;1791959;80;20996;-84
2022/05/18 22:33:58;;;;;;;1.02;0.70;;;;;;;9.09;46.30;97612.22;1794121;80;20988;-84
2022/05/18 22:36:25;;;;;;;1.52;0.80;;;;;;;9.09;46.15;97613.99;1790595;80;21039;-84
2022/05/18 22:38:51;;;;;;;3.25;1.02;;;;;;;9.08;46.15;97617.06;1793341;78;21449;-84
2022/05/18 22:41:17;;;;;;;1.92;1.05;;;;;;;9.07;46.83;97612.02;1795959;79;21038;-85
2022/05/18 22:43:43;;;;;;;2.00;1.20;;;;;;;9.08;47.03;97612.36;1793635;80;21007;-84
2022/05/18 22:46:10;;;;;;;1.95;0.90;;;;;;;9.05;46.76;97612.65;1793511;79;21064;-85
2022/05/18 22:48:35;;;;;;;1.60;0.90;;;;;;;9.03;46.44;97603.72;1763117;80;21022;-85
2022/05/18 22:51:01;;;;;;;2.02;0.80;;;;;;;9.02;46.74;97599.50;1786312;79;20941;-84
2022/05/18 22:53:27;;;;;;;1.12;0.88;;;;;;;9.01;46.42;97602.57;1763534;80;21031;-84
2022/05/18 22:55:52;;;;;;;2.65;1.10;;;;;;;9.01;46.55;97599.98;1794227;79;21008;-85
2022/05/18 22:58:18;;;;;;;1.32;0.80;;;;;;;9.00;46.56;97606.13;1789849;78;21019;-84
2022/05/18 23:00:45;;;;;;;1.60;0.88;;;;;;;9.00;46.51;97602.72;1796026;78;21359;-84
2022/05/18 23:03:11;;;;;;;3.47;1.00;;;;;;;8.98;46.71;97600.27;1794951;79;21342;-84
2022/05/18 23:05:45;;;;;;;2.85;0.80;;;;;;;8.96;46.99;97599.59;1791858;79;20980;-85
2022/05/18 23:08:11;;;;;;;1.57;1.00;;;;;;;8.96;47.10;97595.70;1783546;80;20985;-84
2022/05/18 23:10:37;;;;;;;2.90;1.50;;;;;;;8.97;47.31;97597.82;1780345;79;21047;-84
2022/05/18 23:13:03;;;;;;;3.08;0.88;;;;;;;8.95;47.15;97597.14;1762456;80;20963;-84
2022/05/18 23:15:29;;;;;;;2.50;1.00;;;;;;;8.94;47.30;97599.38;1795504;78;21062;-84
2022/05/18 23:17:57;;;;;;;1.27;1.00;;;;;;;8.94;47.37;97597.59;1777188;80;20957;-85
2022/05/18 23:20:29;;;;;;;2.15;1.20;;;;;;;8.94;47.49;97596.30;1773220;80;21036;-84
2022/05/18 23:25:39;;;;;;;2.12;1.20;;;;;;;8.92;47.49;97592.22;1782255;80;22252;-84
2022/05/18 23:28:05;;;;;;;1.20;0.93;;;;;;;8.90;47.38;97594.95;1795323;80;21067;-85
2022/05/18 23:30:35;;;;;;;1.90;1.07;;;;;;;8.90;47.27;97590.25;1786075;80;21039;-84
2022/05/18 23:33:01;;;;;;;1.57;0.90;;;;;;;8.88;47.41;97587.80;1765426;80;21087;-84
2022/05/18 23:35:26;;;;;;;2.95;1.15;;;;;;;8.89;47.69;97583.44;1781860;79;21442;-84
2022/05/18 23:37:53;;;;;;;2.33;1.00;;;;;;;8.88;47.46;97587.80;1791388;80;21130;-84
2022/05/18 23:40:19;;;;;;;3.62;1.05;;;;;;;8.86;47.62;97580.66;1794057;79;21098;-84
2022/05/18 23:42:45;;;;;;;2.10;0.95;;;;;;;8.86;47.79;97583.25;1790530;80;21391;-84
2022/05/18 23:45:12;;;;;;;1.85;1.00;;;;;;;8.85;47.68;97581.61;1728970;81;20989;-84
2022/05/18 23:47:46;;;;;;;2.42;1.30;;;;;;;8.84;47.80;97583.05;1745413;81;21053;-84
2022/05/18 23:51:29;;;;;;;2.50;1.20;;;;;;;8.82;47.83;97580.61;1759383;80;21422;-84
2022/05/18 23:52:40;;;;;;;2.80;1.20;;;;;;;8.82;48.16;97579.31;1719824;82;21099;-84
2022/05/18 23:55:07;;;;;;;2.50;0.93;;;;;;;8.82;48.13;97580.61;1745004;81;21092;-84
2022/05/18 23:57:32;;;;;;;1.10;0.78;;;;;;;8.81;47.84;97584.16;1749382;79;21089;-85
2022/05/18 23:59:59;;;;;;;1.37;1.02;;;;;;;8.81;48.00;97582.86;1759002;79;21127;-85
